Time;durP1;ratioP1;P1;durP2;ratioP2;P2;SDS_P1;SDS_P2;PMS_P1;PMS_P2;Temp;Humidity;BMP_temperature;BMP_pressure;BME280_temperature;BME280_humidity;BME280_pressure;Samples;Min_cycle;Max_cycle;Signal;HPM_P1;HPM_P2
2021/12/13 00:01:30;;;;;;;15.10;7.53;;;;;;;8.29;78.95;101278.00;4981832;28;20026;-65
2021/12/13 00:04:16;;;;;;;15.10;7.00;;;;;;;8.29;78.93;101266.53;4991279;28;20072;-65
2021/12/13 00:06:53;;;;;;;14.77;7.75;;;;;;;8.32;79.45;101267.41;4982011;28;20026;-65
2021/12/13 00:09:24;;;;;;;11.75;6.25;;;;;;;8.32;79.69;101263.88;4973718;28;20030;-65
2021/12/13 00:11:57;;;;;;;11.40;6.47;;;;;;;8.33;80.14;101260.34;4974187;28;20505;-65
2021/12/13 00:14:44;;;;;;;10.38;6.97;;;;;;;8.31;79.78;101254.16;4986131;28;20101;-65
2021/12/13 00:17:15;;;;;;;9.57;5.80;;;;;;;8.28;80.44;101262.13;4989847;28;20435;-65
2021/12/13 00:20:13;;;;;;;8.77;5.50;;;;;;;8.21;80.51;101263.88;4980901;28;20490;-65
2021/12/13 00:22:42;;;;;;;8.65;4.80;;;;;;;8.21;80.37;101260.34;4975762;28;20497;-65
2021/12/13 00:25:13;;;;;;;8.23;4.88;;;;;;;8.23;80.82;101259.50;4970924;28;20034;-65
2021/12/13 00:27:52;;;;;;;10.73;4.80;;;;;;;8.22;80.46;101257.69;4978270;28;20039;-65
2021/12/13 00:30:33;;;;;;;7.30;4.82;;;;;;;8.24;80.90;101263.91;4972345;28;20062;-65
2021/12/13 00:33:20;;;;;;;8.50;4.30;;;;;;;8.24;80.51;101257.75;4980485;28;20032;-65
2021/12/13 00:35:52;;;;;;;7.93;4.32;;;;;;;8.22;80.46;101259.47;5010532;28;20026;-65
2021/12/13 00:38:21;;;;;;;8.07;3.47;;;;;;;8.23;80.45;101266.53;4989757;28;20387;-65
2021/12/13 00:40:53;;;;;;;8.95;4.15;;;;;;;8.26;80.13;101272.72;4979760;28;20109;-65
2021/12/13 00:43:26;;;;;;;8.05;4.03;;;;;;;8.25;80.47;101270.09;4974075;28;20062;-65
2021/12/13 00:46:00;;;;;;;10.85;4.13;;;;;;;8.24;80.31;101271.00;4988484;28;20038;-65
2021/12/13 00:48:30;;;;;;;7.78;4.50;;;;;;;8.25;80.29;101270.09;4991141;28;20046;-65
2021/12/13 00:51:22;;;;;;;6.55;3.63;;;;;;;8.27;80.19;101281.56;4990653;28;20402;-65
2021/12/13 00:53:50;;;;;;;7.07;4.57;;;;;;;8.28;80.53;101281.56;4991716;28;20105;-65
2021/12/13 00:56:52;;;;;;;7.90;4.05;;;;;;;8.26;80.18;101272.72;4983373;28;20050;-65
2021/12/13 00:59:28;;;;;;;7.80;3.78;;;;;;;8.27;79.92;101273.63;4971863;28;20424;-65
2021/12/13 01:01:59;;;;;;;8.30;4.13;;;;;;;8.24;79.67;101274.50;4976498;28;20510;-65
2021/12/13 01:04:54;;;;;;;6.53;4.35;;;;;;;8.26;79.97;101263.88;4990882;28;20030;-65
2021/12/13 01:07:31;;;;;;;7.93;5.05;;;;;;;8.29;80.11;101266.53;4991020;28;20101;-65
2021/12/13 01:10:21;;;;;;;7.68;4.00;;;;;;;8.30;80.70;101270.97;4988408;28;20026;-65
2021/12/13 01:12:49;;;;;;;9.82;4.35;;;;;;;8.32;80.35;101269.19;4981002;28;20483;-65
2021/12/13 01:15:36;;;;;;;7.57;3.35;;;;;;;8.25;81.07;101259.50;4978736;28;20055;-65
2021/12/13 01:18:27;;;;;;;8.38;4.97;;;;;;;8.27;80.32;101273.63;4973610;28;20582;-65
2021/12/13 01:21:17;;;;;;;9.32;4.63;;;;;;;8.24;80.77;101269.19;4978514;28;20391;-65
2021/12/13 01:23:50;;;;;;;8.00;4.35;;;;;;;8.22;80.43;101268.28;4983050;28;20030;-65
2021/12/13 01:26:38;;;;;;;6.70;4.23;;;;;;;8.24;81.28;101263.91;4980812;28;20085;-65
2021/12/13 01:29:11;;;;;;;7.45;4.65;;;;;;;8.24;81.00;101268.34;4988890;28;20440;-66
2021/12/13 01:31:45;;;;;;;8.07;3.95;;;;;;;8.12;81.22;101269.22;4987378;28;20042;-65
2021/12/13 01:34:11;;;;;;;9.98;4.38;;;;;;;8.15;81.19;101278.91;4999245;28;20026;-65
2021/12/13 01:36:47;;;;;;;9.63;4.38;;;;;;;8.18;81.31;101278.91;4982814;28;20026;-65
2021/12/13 01:39:18;;;;;;;8.27;4.60;;;;;;;8.21;81.61;101278.88;4996886;28;20026;-65
2021/12/13 01:42:03;;;;;;;7.03;3.95;;;;;;;8.16;81.39;101276.25;4997318;28;20077;-65
2021/12/13 01:44:35;;;;;;;7.05;4.07;;;;;;;8.19;82.10;101280.69;4975234;28;20062;-65
2021/12/13 01:47:12;;;;;;;11.43;4.75;;;;;;;8.24;81.88;101278.94;4987310;28;20026;-65
2021/12/13 01:49:42;;;;;;;8.57;4.57;;;;;;;8.23;81.92;101282.41;4977345;28;20065;-65
2021/12/13 01:52:18;;;;;;;7.28;3.83;;;;;;;8.25;81.87;101286.00;4994653;28;20026;-66
2021/12/13 01:54:44;;;;;;;6.60;3.63;;;;;;;8.23;80.97;101282.41;4994589;28;20034;-65
2021/12/13 01:58:06;;;;;;;7.78;4.30;;;;;;;8.17;80.89;101272.72;4994532;28;20093;-65
2021/12/13 02:00:17;;;;;;;10.30;4.70;;;;;;;8.19;80.43;101276.25;4982285;28;20052;-65
2021/12/13 02:03:01;;;;;;;7.50;4.18;;;;;;;8.18;80.14;101279.78;4993768;28;20050;-65
2021/12/13 02:05:33;;;;;;;7.97;4.22;;;;;;;8.22;80.19;101275.38;4990355;28;20019;-65
2021/12/13 02:08:12;;;;;;;9.25;4.38;;;;;;;8.23;80.20;101271.81;4993729;28;20038;-65
2021/12/13 02:10:41;;;;;;;11.93;3.53;;;;;;;8.21;80.01;101273.59;4983991;28;20133;-65
2021/12/13 02:13:16;;;;;;;8.23;4.00;;;;;;;8.23;80.11;101272.75;4978603;28;20034;-65
2021/12/13 02:18:33;;;;;;;5.75;3.60;;;;;;;8.16;79.46;101278.00;4993607;28;20061;-65
2021/12/13 02:21:07;;;;;;;9.07;3.97;;;;;;;8.16;79.92;101275.38;4993145;28;20034;-64
2021/12/13 02:23:36;;;;;;;9.57;3.88;;;;;;;8.17;80.61;101288.59;4998180;28;20113;-65
2021/12/13 02:26:03;;;;;;;9.70;4.03;;;;;;;8.12;80.81;101279.81;5012408;28;20029;-65
2021/12/13 02:28:33;;;;;;;7.70;4.85;;;;;;;8.19;80.33;101296.59;4993327;28;20391;-65
2021/12/13 02:31:27;;;;;;;5.95;3.50;;;;;;;8.18;80.55;101298.34;4992871;28;20018;-65
2021/12/13 02:33:56;;;;;;;6.47;3.08;;;;;;;8.16;80.27;101291.25;4982751;28;20038;-65
2021/12/13 02:36:26;;;;;;;6.10;3.70;;;;;;;8.10;80.35;101293.94;4973608;28;20174;-65
2021/12/13 02:38:55;;;;;;;9.57;4.28;;;;;;;8.15;80.58;101300.13;4980517;28;20054;-65
2021/12/13 02:41:24;;;;;;;8.00;3.42;;;;;;;8.17;80.71;101298.34;4993497;28;20109;-65
2021/12/13 02:43:54;;;;;;;9.50;3.92;;;;;;;8.21;80.34;101300.09;4992825;28;20074;-65
2021/12/13 02:46:20;;;;;;;6.65;3.88;;;;;;;8.21;80.89;101294.78;4993989;28;20030;-65
2021/12/13 02:48:54;;;;;;;6.63;3.78;;;;;;;8.21;80.93;101295.69;4985881;28;20050;-65
2021/12/13 02:51:38;;;;;;;6.72;4.25;;;;;;;8.17;81.16;101293.91;4973639;28;20026;-65
2021/12/13 02:54:09;;;;;;;7.30;3.67;;;;;;;8.15;81.02;101300.13;4996659;28;20116;-64
2021/12/13 02:57:06;;;;;;;8.27;3.75;;;;;;;8.16;81.40;101299.22;4976201;28;20049;-65
2021/12/13 02:59:34;;;;;;;6.45;3.53;;;;;;;8.18;81.81;101302.75;4970027;28;20050;-66
2021/12/13 03:02:03;;;;;;;8.10;4.03;;;;;;;8.17;81.64;101293.06;4975349;28;20065;-65
2021/12/13 03:04:29;;;;;;;7.68;4.05;;;;;;;8.07;81.99;101278.94;4987580;28;20033;-65
2021/12/13 03:07:03;;;;;;;7.40;4.68;;;;;;;8.09;81.89;101293.06;4992202;28;20140;-65
2021/12/13 03:09:32;;;;;;;13.38;4.93;;;;;;;8.12;81.83;101305.44;4982897;28;20045;-65
2021/12/13 03:12:00;;;;;;;10.98;4.68;;;;;;;8.13;82.11;101296.59;4992406;28;20045;-65
2021/12/13 03:14:31;;;;;;;12.90;5.00;;;;;;;8.14;82.07;101293.06;4989019;28;20054;-65
2021/12/13 03:17:08;;;;;;;8.02;4.70;;;;;;;8.18;81.90;101303.66;4992638;28;20125;-65
2021/12/13 03:19:39;;;;;;;10.52;4.85;;;;;;;8.19;81.65;101301.88;4989048;28;20033;-65
2021/12/13 03:22:17;;;;;;;9.85;4.05;;;;;;;8.20;81.49;101298.34;4985059;28;20041;-65
2021/12/13 03:25:02;;;;;;;10.98;4.82;;;;;;;8.20;81.63;101298.34;4991871;28;20026;-65
2021/12/13 03:27:52;;;;;;;10.45;4.28;;;;;;;8.20;81.10;101303.63;4992977;28;20042;-65
2021/12/13 03:30:26;;;;;;;7.45;4.78;;;;;;;8.20;81.67;101303.63;4982687;28;20058;-65
2021/12/13 03:32:56;;;;;;;10.80;4.57;;;;;;;8.21;81.90;101300.97;4992426;28;20030;-65
2021/12/13 03:35:27;;;;;;;10.65;4.80;;;;;;;8.19;81.95;101300.09;4992430;28;20041;-65
2021/12/13 03:38:07;;;;;;;14.30;5.38;;;;;;;8.20;82.23;101295.69;4990238;28;20038;-65
2021/12/13 03:40:33;;;;;;;8.60;4.75;;;;;;;8.12;82.04;101278.94;4977951;28;20026;-65
2021/12/13 03:43:05;;;;;;;8.13;4.65;;;;;;;8.17;82.65;101295.69;4988076;28;20030;-65
2021/12/13 03:45:39;;;;;;;10.18;5.15;;;;;;;8.16;82.75;101293.91;4982567;28;20383;-64
2021/12/13 03:48:08;;;;;;;8.50;4.70;;;;;;;8.23;82.97;101298.31;4994713;28;20234;-65
2021/12/13 03:50:38;;;;;;;9.93;4.68;;;;;;;8.20;82.59;101301.00;4982010;28;20030;-65
2021/12/13 03:53:11;;;;;;;9.30;5.05;;;;;;;8.17;82.37;101301.84;4991406;28;20038;-65
2021/12/13 03:55:39;;;;;;;10.75;5.93;;;;;;;8.16;82.82;101296.56;4992975;28;20042;-65
2021/12/13 03:58:08;;;;;;;12.98;4.97;;;;;;;8.20;81.94;101298.34;4989859;28;20037;-65
2021/12/13 04:00:42;;;;;;;10.07;5.03;;;;;;;8.24;81.01;101305.44;4992379;28;20029;-65
2021/12/13 04:03:12;;;;;;;8.63;4.90;;;;;;;8.22;80.96;101307.19;4990908;28;20041;-65
2021/12/13 04:05:38;;;;;;;7.18;4.40;;;;;;;8.19;81.68;101299.25;4980170;28;20029;-65
2021/12/13 04:08:11;;;;;;;7.45;4.93;;;;;;;8.32;80.07;101299.22;4972032;28;20038;-65
2021/12/13 04:10:44;;;;;;;11.57;4.70;;;;;;;8.24;80.52;101286.88;4974724;28;20058;-65
2021/12/13 04:13:15;;;;;;;16.05;6.03;;;;;;;8.20;81.09;101304.53;4992364;28;20398;-65
2021/12/13 04:21:56;;;;;;;12.02;5.55;;;;;;;8.25;81.70;101296.59;4996081;28;20402;-65
2021/12/13 04:24:44;;;;;;;24.20;6.85;;;;;;;8.25;81.40;101305.44;5011297;28;20505;-65
2021/12/13 04:27:37;;;;;;;11.00;6.32;;;;;;;8.20;81.45;101301.00;5011933;28;20061;-65
2021/12/13 04:30:35;;;;;;;10.77;6.57;;;;;;;8.22;82.12;101301.88;4979619;28;20129;-65
2021/12/13 04:33:08;;;;;;;11.80;6.38;;;;;;;8.20;82.90;101301.88;4960677;28;20094;-65
2021/12/13 04:35:34;;;;;;;12.88;5.88;;;;;;;8.21;83.09;101300.09;4978994;28;20035;-65
2021/12/13 04:38:03;;;;;;;10.30;6.78;;;;;;;8.20;83.84;101301.00;4982587;28;20089;-65
2021/12/13 04:40:40;;;;;;;9.15;5.53;;;;;;;8.18;84.04;101289.50;4988090;28;20446;-65
2021/12/13 04:43:08;;;;;;;9.20;4.78;;;;;;;8.17;84.09;101298.34;4972249;28;20042;-65
2021/12/13 04:45:35;;;;;;;11.57;4.80;;;;;;;8.14;84.14;101282.47;4981563;28;20030;-65
2021/12/13 04:48:18;;;;;;;6.97;4.40;;;;;;;8.16;84.04;101288.63;4992232;28;20073;-65
2021/12/13 04:51:01;;;;;;;14.75;6.07;;;;;;;8.16;84.07;101296.56;4979150;28;20460;-65
2021/12/13 04:53:32;;;;;;;10.68;5.63;;;;;;;8.14;83.89;101291.28;4971423;28;20046;-65
2021/12/13 04:56:02;;;;;;;11.15;5.03;;;;;;;8.13;83.84;101283.31;4991036;28;20060;-65
2021/12/13 04:58:28;;;;;;;20.70;5.72;;;;;;;8.11;84.31;101285.09;5010291;28;20041;-65
2021/12/13 05:00:58;;;;;;;13.27;6.60;;;;;;;8.11;84.82;101283.34;5001581;28;20066;-65
2021/12/13 05:03:38;;;;;;;12.82;6.38;;;;;;;8.12;84.99;101277.16;4986349;28;20030;-65
2021/12/13 05:06:14;;;;;;;18.83;6.82;;;;;;;8.07;85.29;101275.41;4974297;28;20439;-65
2021/12/13 05:08:43;;;;;;;8.00;5.05;;;;;;;8.01;85.28;101266.59;4976501;28;20027;-65
2021/12/13 05:11:10;;;;;;;9.93;4.68;;;;;;;8.07;85.49;101280.72;4987074;28;20097;-65
2021/12/13 05:13:44;;;;;;;10.43;5.15;;;;;;;8.01;85.50;101287.78;4995313;28;20030;-65
2021/12/13 05:16:11;;;;;;;9.23;5.00;;;;;;;8.00;85.87;101283.38;4985202;28;20394;-65
2021/12/13 05:18:51;;;;;;;11.38;5.32;;;;;;;7.71;86.60;101285.16;4975564;28;20126;-65
2021/12/13 05:21:26;;;;;;;10.85;6.28;;;;;;;7.84;86.78;101278.97;4977599;28;20109;-65
2021/12/13 05:23:56;;;;;;;12.55;6.80;;;;;;;7.84;87.11;101284.28;4980107;28;20030;-65
2021/12/13 05:26:46;;;;;;;12.88;6.00;;;;;;;7.81;86.98;101284.28;4974924;28;20495;-65
2021/12/13 05:29:23;;;;;;;12.52;5.95;;;;;;;7.81;87.33;101284.28;4976252;28;20034;-65
2021/12/13 05:31:55;;;;;;;11.82;6.30;;;;;;;7.78;87.36;101294.88;4982111;28;22544;-65
2021/12/13 05:34:21;;;;;;;9.57;5.20;;;;;;;7.72;87.80;101288.72;4975619;28;20030;-65
2021/12/13 05:36:57;;;;;;;9.50;5.55;;;;;;;7.70;87.82;101301.94;4988955;28;20022;-65
2021/12/13 05:39:23;;;;;;;7.30;4.45;;;;;;;7.64;88.46;101307.22;4995296;28;20161;-66
2021/12/13 05:41:55;;;;;;;9.15;5.03;;;;;;;7.23;91.16;101301.03;4994748;28;20034;-65
2021/12/13 05:44:32;;;;;;;8.38;5.40;;;;;;;7.11;92.19;101303.69;4995313;28;20058;-65
2021/12/13 05:46:59;;;;;;;11.50;5.97;;;;;;;6.96;92.48;101303.66;5000061;28;20045;-65
2021/12/13 05:49:29;;;;;;;14.00;5.38;;;;;;;6.85;93.75;101308.03;5011212;28;20105;-65
2021/12/13 05:52:08;;;;;;;10.68;6.57;;;;;;;6.78;93.54;101314.16;5013427;28;20030;-65
2021/12/13 05:54:40;;;;;;;9.48;5.43;;;;;;;6.65;93.87;101313.22;5001303;28;20167;-65
2021/12/13 05:57:08;;;;;;;8.70;5.28;;;;;;;6.53;94.04;101310.56;4979710;28;20138;-65
2021/12/13 05:59:52;;;;;;;9.73;5.80;;;;;;;6.45;95.01;101311.38;4974353;28;20054;-65
2021/12/13 06:02:35;;;;;;;9.73;5.22;;;;;;;6.37;95.46;101310.47;4988057;28;20394;-65
2021/12/13 06:05:06;;;;;;;;;;;;;;;6.31;95.90;101315.75;4992881;28;20034;-65
2021/12/13 06:07:36;;;;;;;8.40;5.25;;;;;;;6.28;96.19;101305.13;4985422;28;19914;-65
2021/12/13 06:10:07;;;;;;;9.10;6.63;;;;;;;6.28;96.65;101307.78;4993287;28;20026;-65
2021/12/13 06:12:39;;;;;;;11.63;5.97;;;;;;;6.27;96.95;101311.28;4991674;28;20026;-66
2021/12/13 06:15:24;;;;;;;11.13;5.57;;;;;;;6.25;96.84;101313.94;4978784;28;20043;-67
2021/12/13 06:17:58;;;;;;;17.30;7.25;;;;;;;6.21;97.03;101308.63;4973969;28;20038;-66
2021/12/13 06:20:34;;;;;;;11.35;6.45;;;;;;;6.14;97.64;101312.09;4981617;28;20424;-67
2021/12/13 06:23:13;;;;;;;11.05;6.70;;;;;;;6.09;97.40;101313.84;4973856;28;20030;-66
2021/12/13 06:25:42;;;;;;;12.00;6.70;;;;;;;6.03;97.58;101309.38;4977192;28;20086;-66
2021/12/13 06:28:19;;;;;;;12.75;6.95;;;;;;;5.95;97.48;101320.75;4977584;28;20054;-66
2021/12/13 06:30:56;;;;;;;10.07;5.82;;;;;;;5.88;97.67;101318.97;4976735;28;20028;-66
2021/12/13 06:33:23;;;;;;;10.55;5.63;;;;;;;5.79;98.48;101324.16;4978908;28;20047;-66
2021/12/13 06:35:58;;;;;;;15.35;6.10;;;;;;;5.77;98.41;101323.25;4985216;28;20029;-66
2021/12/13 06:38:41;;;;;;;7.95;4.50;;;;;;;5.78;99.23;101333.84;4990317;28;20114;-66
2021/12/13 06:41:12;;;;;;;11.77;4.85;;;;;;;5.69;98.81;101319.66;4993035;28;20040;-66
2021/12/13 06:43:48;;;;;;;7.57;4.28;;;;;;;5.75;99.29;101338.22;4983924;28;20035;-66
2021/12/13 06:46:22;;;;;;;9.98;5.18;;;;;;;5.75;99.52;101344.34;4989537;28;20026;-66
2021/12/13 06:48:51;;;;;;;9.75;4.93;;;;;;;5.72;100.00;101343.44;4973289;28;20031;-66
2021/12/13 06:51:19;;;;;;;9.32;4.97;;;;;;;5.75;100.00;101338.22;4976460;28;20082;-66
2021/12/13 06:54:04;;;;;;;9.13;5.05;;;;;;;5.77;100.00;101341.72;4977679;28;20655;-66
2021/12/13 06:56:33;;;;;;;7.22;4.82;;;;;;;5.77;100.00;101345.25;4974219;28;20374;-66
2021/12/13 06:59:02;;;;;;;7.93;4.80;;;;;;;5.77;100.00;101341.72;4990673;28;20040;-66
2021/12/13 07:01:29;;;;;;;11.80;6.22;;;;;;;5.82;100.00;101337.38;4993824;28;20030;-66
2021/12/13 07:04:09;;;;;;;16.55;8.90;;;;;;;5.98;100.00;101332.25;4993847;28;20494;-66
2021/12/13 07:06:36;;;;;;;16.67;10.25;;;;;;;6.04;100.00;101336.69;4986045;28;20026;-66
2021/12/13 07:09:16;;;;;;;15.13;8.93;;;;;;;5.93;100.00;101335.75;4990801;28;20082;-66
2021/12/13 07:11:55;;;;;;;19.45;12.35;;;;;;;5.93;100.00;101338.38;4990307;28;20027;-66
2021/12/13 07:14:36;;;;;;;25.88;13.25;;;;;;;5.85;100.00;101342.72;4987232;28;20054;-66
2021/12/13 07:17:12;;;;;;;18.77;10.15;;;;;;;5.80;100.00;101337.34;4992412;28;20031;-67
2021/12/13 07:19:40;;;;;;;17.38;11.57;;;;;;;5.82;100.00;101340.00;4993436;28;20070;-66
2021/12/13 07:22:07;;;;;;;19.98;11.15;;;;;;;5.74;100.00;101341.69;4982932;28;20367;-66
2021/12/13 07:24:40;;;;;;;21.00;10.38;;;;;;;5.73;100.00;101339.94;4992175;28;20038;-66
2021/12/13 07:27:08;;;;;;;19.90;11.02;;;;;;;5.64;100.00;101330.19;4988489;28;20081;-66
2021/12/13 07:29:44;;;;;;;18.35;11.32;;;;;;;5.67;100.00;101340.78;4990020;28;20690;-66
2021/12/13 07:32:25;;;;;;;15.65;9.75;;;;;;;5.68;100.00;101347.84;4993216;28;20026;-66
2021/12/13 07:35:14;;;;;;;17.67;10.73;;;;;;;6.10;100.00;101348.19;4985351;28;20502;-67
2021/12/13 07:37:39;;;;;;;17.02;9.02;;;;;;;6.23;100.00;101359.69;4980663;28;20022;-66
2021/12/13 07:40:23;;;;;;;13.75;7.95;;;;;;;6.36;99.61;101367.72;4983132;28;20398;-66
2021/12/13 07:43:03;;;;;;;13.75;7.22;;;;;;;6.48;99.23;101369.53;4993668;28;20376;-66
2021/12/13 07:45:39;;;;;;;17.23;9.18;;;;;;;6.56;99.24;101371.34;4989620;28;20093;-66
2021/12/13 07:48:10;;;;;;;16.80;8.70;;;;;;;6.84;98.89;101377.63;4986502;28;20085;-66
2021/12/13 07:50:36;;;;;;;13.18;7.38;;;;;;;7.00;98.36;101379.47;4993524;28;20030;-66
2021/12/13 07:53:06;;;;;;;8.98;5.85;;;;;;;7.09;97.24;101379.50;4990391;28;20122;-66
2021/12/13 07:55:33;;;;;;;11.90;7.13;;;;;;;7.20;96.99;101388.34;4989737;28;20026;-66
2021/12/13 07:58:04;;;;;;;14.98;8.70;;;;;;;7.38;96.67;101380.44;4983199;28;20081;-66
2021/12/13 08:00:36;;;;;;;17.05;8.63;;;;;;;7.46;95.88;101386.63;4989482;28;20114;-66
2021/12/13 08:03:06;;;;;;;12.20;6.47;;;;;;;7.45;94.86;101382.25;4990801;28;20402;-66
2021/12/13 08:05:38;;;;;;;10.35;6.60;;;;;;;7.39;94.09;101390.19;4986278;28;20026;-66
2021/12/13 08:08:05;;;;;;;13.30;6.55;;;;;;;7.32;94.58;101385.75;4983227;28;20371;-66
2021/12/13 08:10:40;;;;;;;11.20;7.05;;;;;;;7.31;94.65;101386.63;4989453;28;20031;-66
2021/12/13 08:13:17;;;;;;;21.67;10.55;;;;;;;7.44;94.40;101392.81;4977332;28;20038;-66
2021/12/13 08:15:48;;;;;;;14.48;9.60;;;;;;;7.48;94.41;101384.88;4982719;28;20080;-66
2021/12/13 08:18:39;;;;;;;13.30;7.75;;;;;;;7.54;94.17;101387.56;4987925;28;20049;-66
2021/12/13 08:21:13;;;;;;;17.05;9.15;;;;;;;7.62;94.32;101387.56;4974505;28;20030;-66
2021/12/13 08:23:55;;;;;;;13.82;8.43;;;;;;;7.71;94.02;101393.75;4979469;28;20038;-66
2021/12/13 08:26:35;;;;;;;14.68;8.63;;;;;;;7.81;94.24;101400.81;4978784;28;20034;-66
2021/12/13 08:29:09;;;;;;;17.90;8.75;;;;;;;7.98;93.92;101387.56;4969215;28;20023;-66
2021/12/13 08:31:38;;;;;;;13.65;8.25;;;;;;;8.09;93.22;101393.75;4977645;28;20034;-66
2021/12/13 08:34:08;;;;;;;14.85;8.57;;;;;;;8.11;92.15;101388.44;4970657;28;20463;-65
2021/12/13 08:36:43;;;;;;;15.27;8.65;;;;;;;8.09;91.85;101387.59;4969720;28;20486;-66
2021/12/13 08:39:13;;;;;;;24.65;8.02;;;;;;;8.12;92.04;101387.56;4969975;28;20462;-66
2021/12/13 08:41:45;;;;;;;12.57;8.07;;;;;;;8.19;92.29;101387.56;4978490;28;20034;-66
2021/12/13 08:44:10;;;;;;;13.15;7.60;;;;;;;8.27;92.05;101382.28;4989531;28;20022;-66
2021/12/13 08:46:51;;;;;;;13.48;8.05;;;;;;;8.34;91.91;101381.38;4992503;28;20371;-65
2021/12/13 08:49:29;;;;;;;16.45;9.23;;;;;;;8.47;92.30;101385.75;4985792;28;20023;-66
2021/12/13 08:52:16;;;;;;;15.95;8.77;;;;;;;8.55;91.98;101382.22;4990314;28;20037;-66
2021/12/13 08:55:02;;;;;;;16.33;8.98;;;;;;;8.52;92.18;101376.03;4985806;28;20368;-66
2021/12/13 08:57:46;;;;;;;17.25;9.38;;;;;;;8.61;92.89;101381.31;4974309;28;20057;-66
2021/12/13 09:00:35;;;;;;;14.43;9.60;;;;;;;8.74;92.74;101389.25;4984749;28;20030;-67
2021/12/13 09:03:15;;;;;;;17.55;9.45;;;;;;;8.84;92.76;101383.03;4988430;28;20402;-66
2021/12/13 09:06:01;;;;;;;15.20;10.05;;;;;;;8.97;92.60;101381.19;4988505;28;20422;-66
2021/12/13 09:08:44;;;;;;;17.75;9.45;;;;;;;9.12;92.58;101386.44;4987760;28;21158;-66
2021/12/13 09:11:38;;;;;;;19.38;9.35;;;;;;;9.10;92.85;101393.50;4985332;28;20026;-65
2021/12/13 09:14:18;;;;;;;18.25;8.38;;;;;;;9.03;94.81;101387.34;4987134;28;20051;-66
2021/12/13 09:16:55;;;;;;;16.67;8.15;;;;;;;9.13;95.29;101383.75;4983952;28;20026;-65
2021/12/13 09:19:24;;;;;;;18.52;10.00;;;;;;;9.33;95.31;101383.66;4987071;28;20469;-65
2021/12/13 09:22:03;;;;;;;15.18;8.98;;;;;;;9.33;94.60;101375.69;4985242;28;20117;-66
2021/12/13 09:24:47;;;;;;;13.68;8.45;;;;;;;9.56;92.86;101384.38;4988930;28;20030;-66
2021/12/13 09:27:23;;;;;;;16.63;8.13;;;;;;;9.99;92.41;101383.19;4982124;28;20041;-65
2021/12/13 09:30:20;;;;;;;18.13;9.43;;;;;;;10.30;88.85;101381.16;4974992;28;20046;-66
2021/12/13 09:32:59;;;;;;;18.73;9.23;;;;;;;10.30;86.88;101382.03;4999638;28;20113;-65
2021/12/13 09:35:34;;;;;;;16.15;9.20;;;;;;;10.60;87.01;101370.19;4977771;28;20051;-65
2021/12/13 09:38:18;;;;;;;20.50;9.65;;;;;;;11.37;83.60;101383.41;4979700;28;20034;-65
2021/12/13 09:40:48;;;;;;;14.32;8.85;;;;;;;12.65;79.71;101372.38;4980506;28;20481;-65
2021/12/13 09:43:14;;;;;;;15.38;8.40;;;;;;;14.18;71.16;101368.00;4991686;28;20104;-65
2021/12/13 09:45:52;;;;;;;20.70;10.68;;;;;;;15.42;61.94;101360.91;4985957;28;20181;-65
2021/12/13 09:48:36;;;;;;;16.10;8.38;;;;;;;15.71;56.93;101357.31;4999970;28;20022;-65
2021/12/13 09:51:11;;;;;;;19.77;8.48;;;;;;;15.40;55.86;101370.78;5011954;28;20068;-65
2021/12/13 09:53:38;;;;;;;14.80;7.88;;;;;;;15.25;57.26;101373.03;5004002;28;20443;-65
2021/12/13 09:56:12;;;;;;;15.05;8.02;;;;;;;15.71;56.02;101358.19;4989802;28;20053;-65
2021/12/13 09:58:41;;;;;;;12.60;7.28;;;;;;;15.76;55.23;101360.72;4992358;28;20022;-65
2021/12/13 10:01:12;;;;;;;12.70;8.65;;;;;;;16.32;54.03;101353.44;4992591;28;20478;-65
2021/12/13 10:04:13;;;;;;;13.30;7.65;;;;;;;18.13;50.63;101355.38;4987228;28;20037;-65
2021/12/13 10:06:43;;;;;;;10.98;6.60;;;;;;;19.54;45.98;101353.44;4983702;28;20034;-65
2021/12/13 10:09:26;;;;;;;11.85;6.82;;;;;;;20.39;42.39;101350.97;4991610;28;20486;-65
2021/12/13 10:12:24;;;;;;;13.38;7.05;;;;;;;20.77;41.91;101341.69;4971729;28;20031;-65
2021/12/13 10:15:23;;;;;;;13.25;7.45;;;;;;;21.39;41.37;101345.53;4991046;28;20121;-65
2021/12/13 10:17:52;;;;;;;10.07;6.32;;;;;;;21.82;40.30;101345.75;4968899;28;20039;-65
2021/12/13 10:20:22;;;;;;;12.88;7.50;;;;;;;21.19;40.54;101334.94;4981881;28;20658;-65
2021/12/13 10:22:48;;;;;;;13.38;6.88;;;;;;;20.88;40.96;101328.47;4972314;28;20110;-65
2021/12/13 10:25:29;;;;;;;14.48;6.85;;;;;;;20.56;42.30;101331.16;4985686;28;20398;-65
2021/12/13 10:27:56;;;;;;;11.68;6.53;;;;;;;20.12;43.63;101333.41;4990146;28;20096;-65
2021/12/13 10:30:37;;;;;;;14.60;7.55;;;;;;;20.24;43.53;101330.13;4983665;28;20027;-65
2021/12/13 10:33:05;;;;;;;10.43;6.10;;;;;;;20.49;42.18;101329.72;4972231;28;20080;-65
2021/12/13 10:35:35;;;;;;;10.02;6.68;;;;;;;20.37;42.90;101325.84;4984389;28;20038;-65
2021/12/13 10:38:06;;;;;;;9.77;4.78;;;;;;;20.62;42.91;101320.00;4983228;28;20104;-65
2021/12/13 10:40:37;;;;;;;8.43;4.53;;;;;;;20.99;42.45;101313.53;4992796;28;20065;-67
2021/12/13 10:43:10;;;;;;;8.32;3.90;;;;;;;21.20;42.32;101315.94;4985830;28;20394;-66
2021/12/13 10:45:43;;;;;;;8.20;4.30;;;;;;;21.57;41.60;101312.88;4988809;28;20486;-67
2021/12/13 10:48:11;;;;;;;8.40;5.05;;;;;;;21.57;40.78;101318.28;4989385;28;20030;-67
2021/12/13 10:50:48;;;;;;;10.88;5.10;;;;;;;21.44;41.13;101317.25;4992677;28;20041;-67
2021/12/13 10:53:16;;;;;;;8.57;4.68;;;;;;;20.97;42.40;101313.63;4991067;28;20109;-66
2021/12/13 10:55:46;;;;;;;8.95;3.95;;;;;;;20.22;44.09;101309.53;4991163;28;20097;-65
2021/12/13 10:58:19;;;;;;;7.03;4.55;;;;;;;18.53;47.08;101322.22;4991771;28;20026;-65
2021/12/13 11:01:00;;;;;;;11.40;5.57;;;;;;;16.88;50.52;101317.38;4984147;28;20027;-65
2021/12/13 11:03:29;;;;;;;7.97;4.28;;;;;;;15.75;53.61;101322.28;5009267;28;20056;-66
2021/12/13 11:05:56;;;;;;;10.10;4.65;;;;;;;14.98;56.67;101313.09;5001984;28;20483;-66
2021/12/13 11:08:23;;;;;;;8.23;4.72;;;;;;;14.19;61.43;101314.44;4993418;28;20125;-66
2021/12/13 11:10:56;;;;;;;8.02;3.83;;;;;;;13.81;64.49;101308.31;4992605;28;20045;-66
2021/12/13 11:13:24;;;;;;;;;;;;;;;14.02;64.79;101303.28;4994273;28;20034;-65
2021/12/13 11:15:53;;;;;;;8.75;4.22;;;;;;;13.88;64.57;101310.81;4983839;28;19918;-66
2021/12/13 11:18:27;;;;;;;9.32;5.05;;;;;;;14.44;65.09;101312.00;4973716;28;20395;-66
2021/12/13 11:20:55;;;;;;;8.52;4.78;;;;;;;15.72;59.91;101300.91;4979333;28;20034;-68
2021/12/13 11:23:22;;;;;;;9.48;5.22;;;;;;;16.00;56.39;101299.97;4992875;28;20088;-68
2021/12/13 11:25:52;;;;;;;8.80;4.60;;;;;;;16.24;56.07;101304.50;4989170;28;20030;-68
2021/12/13 11:28:19;;;;;;;11.10;5.72;;;;;;;16.67;54.54;101304.75;4986558;28;20053;-68
2021/12/13 11:30:47;;;;;;;8.38;5.00;;;;;;;17.37;52.97;101306.47;4992075;28;20034;-67
2021/12/13 11:33:21;;;;;;;8.15;5.18;;;;;;;17.84;50.89;101307.28;4983303;28;20119;-68
2021/12/13 11:36:24;;;;;;;9.10;4.43;;;;;;;18.08;50.90;101307.09;4973292;28;20037;-67
2021/12/13 11:39:27;;;;;;;7.90;5.13;;;;;;;18.86;48.51;101309.94;4995122;28;20029;-68
2021/12/13 11:42:30;;;;;;;11.45;5.10;;;;;;;18.57;49.36;101308.53;4992610;28;20516;-68
2021/12/13 11:45:38;;;;;;;7.22;4.18;;;;;;;18.61;48.94;101298.50;4993154;28;20030;-68
2021/12/13 11:48:36;;;;;;;11.13;4.43;;;;;;;19.09;49.33;101312.44;4973380;28;20043;-68
2021/12/13 11:51:09;;;;;;;9.50;4.90;;;;;;;18.70;48.95;101308.88;5010448;28;20526;-68
2021/12/13 11:53:58;;;;;;;11.15;4.85;;;;;;;17.65;50.27;101309.84;4993546;28;20061;-68
2021/12/13 11:56:55;;;;;;;9.05;5.35;;;;;;;16.53;52.87;101312.41;4991714;28;20026;-68
2021/12/13 12:00:06;;;;;;;9.98;4.90;;;;;;;15.55;56.34;101314.00;4981533;28;20068;-68
2021/12/13 12:02:49;;;;;;;9.55;4.90;;;;;;;14.30;60.35;101308.81;4941945;28;20039;-68
2021/12/13 12:05:41;;;;;;;9.35;5.35;;;;;;;13.83;64.74;101306.47;4980558;28;20022;-68
2021/12/13 12:08:07;;;;;;;15.00;7.88;;;;;;;14.02;65.30;101295.25;4972297;28;20031;-68
2021/12/13 12:11:20;;;;;;;21.15;11.85;;;;;;;13.87;67.10;101303.69;4974924;28;20541;-68
2021/12/13 12:14:10;;;;;;;14.32;7.43;;;;;;;13.74;67.73;101296.03;4972640;28;20121;-66
2021/12/13 12:16:41;;;;;;;13.75;7.07;;;;;;;13.43;69.01;101284.31;4972871;28;20054;-66